createdAt,value
2023-03-10T00:00:39.174Z,6.03
2023-03-10T00:05:41.832Z,5.90
2023-03-10T00:10:43.827Z,9.82
2023-03-10T00:13:15.643Z,4.10
2023-03-10T00:18:17.334Z,6.10
2023-03-10T00:20:48.333Z,8.50
2023-03-10T00:23:19.865Z,8.32
2023-03-10T00:26:02.459Z,5.90
2023-03-10T00:28:34.592Z,5.32
2023-03-10T00:31:10.219Z,14.75
2023-03-10T00:33:42.161Z,5.22
2023-03-10T00:38:48.942Z,6.50
2023-03-10T00:41:22.558Z,21.42
2023-03-10T00:43:54.228Z,10.43
2023-03-10T00:46:26.330Z,7.82
2023-03-10T00:48:58.159Z,7.22
2023-03-10T00:51:29.914Z,7.72
2023-03-10T00:56:33.536Z,4.85
2023-03-10T00:59:04.900Z,7.32
2023-03-10T01:04:16.289Z,10.73
2023-03-10T01:06:49.140Z,6.65
2023-03-10T01:09:21.969Z,4.57
2023-03-10T01:11:53.418Z,4.93
2023-03-10T01:14:24.863Z,4.57
2023-03-10T01:16:56.315Z,4.45
2023-03-10T01:19:27.674Z,5.82
2023-03-10T01:24:29.769Z,4.85
2023-03-10T01:27:01.125Z,5.25
2023-03-10T01:29:33.442Z,3.70
2023-03-10T01:32:04.778Z,4.55
2023-03-10T01:34:36.623Z,4.35
2023-03-10T01:39:39.289Z,5.30
2023-03-10T01:42:11.742Z,3.40
2023-03-10T01:44:42.991Z,4.97
2023-03-10T01:47:14.984Z,4.05
2023-03-10T01:49:47.688Z,6.05
2023-03-10T01:52:26.153Z,5.68
2023-03-10T01:55:14.483Z,4.80
2023-03-10T01:57:53.229Z,8.35
2023-03-10T02:00:25.870Z,7.65
2023-03-10T02:03:20.099Z,8.00
2023-03-10T02:06:08.680Z,6.35
2023-03-10T02:08:48.719Z,10.35
2023-03-10T02:11:20.995Z,8.70
2023-03-10T02:13:56.118Z,9.88
2023-03-10T02:16:27.500Z,9.05
2023-03-10T02:24:30.188Z,7.63
2023-03-10T02:27:05.503Z,8.43
2023-03-10T02:29:59.391Z,10.02
2023-03-10T02:32:38.513Z,7.75
2023-03-10T02:35:10.377Z,10.45
2023-03-10T02:37:52.432Z,7.97
2023-03-10T02:40:35.407Z,8.63
2023-03-10T02:43:31.263Z,8.18
2023-03-10T02:46:10.964Z,8.73
2023-03-10T02:48:45.595Z,11.68
2023-03-10T02:51:34.433Z,12.68
2023-03-10T02:54:11.634Z,10.15
2023-03-10T02:56:44.560Z,11.38
2023-03-10T02:59:17.926Z,11.82
2023-03-10T03:01:53.307Z,10.05
2023-03-10T03:04:24.861Z,8.63
2023-03-10T03:06:55.995Z,6.22
2023-03-10T03:09:27.150Z,8.68
2023-03-10T03:11:59.440Z,5.65
2023-03-10T03:14:30.680Z,6.63
2023-03-10T03:17:02.511Z,6.25
2023-03-10T03:19:33.626Z,6.30
2023-03-10T03:22:05.310Z,7.82
2023-03-10T03:24:36.474Z,4.18
2023-03-10T03:27:08.388Z,5.97
2023-03-10T03:29:40.008Z,3.15
2023-03-10T03:32:11.767Z,2.47
2023-03-10T03:34:43.361Z,4.55
2023-03-10T03:37:15.295Z,2.78
2023-03-10T03:39:46.575Z,3.72
2023-03-10T03:42:18.189Z,2.60
2023-03-10T03:44:55.192Z,3.65
2023-03-10T03:49:56.963Z,3.33
2023-03-10T03:52:28.279Z,4.28
2023-03-10T03:55:00.582Z,5.18
2023-03-10T03:57:33.584Z,5.40
2023-03-10T04:00:10.087Z,5.07
2023-03-10T04:02:43.048Z,4.45
2023-03-10T04:05:14.513Z,8.32
2023-03-10T04:07:47.219Z,8.07
2023-03-10T04:10:29.980Z,7.53
2023-03-10T04:13:01.982Z,7.75
2023-03-10T04:15:34.036Z,8.35
2023-03-10T04:18:05.817Z,8.43
2023-03-10T04:20:37.210Z,6.25
2023-03-10T04:23:09.544Z,7.32
2023-03-10T04:28:15.524Z,6.97
2023-03-10T04:30:49.271Z,8.25
2023-03-10T04:33:23.813Z,6.05
2023-03-10T04:35:55.953Z,5.88
2023-03-10T04:38:28.400Z,7.40
2023-03-10T04:43:36.314Z,6.47
2023-03-10T04:46:08.295Z,9.82
2023-03-10T04:48:40.373Z,4.25
2023-03-10T04:51:13.322Z,7.57
2023-03-10T04:53:51.393Z,7.90
2023-03-10T04:56:23.624Z,8.77
2023-03-10T04:58:56.536Z,7.82
2023-03-10T05:01:33.842Z,8.77
2023-03-10T05:04:08.862Z,6.25
2023-03-10T05:06:40.263Z,5.78
2023-03-10T05:09:31.200Z,7.95
2023-03-10T05:12:02.430Z,6.57
2023-03-10T05:14:36.172Z,5.35
2023-03-10T05:17:07.483Z,6.78
2023-03-10T05:19:39.220Z,9.57
2023-03-10T05:22:12.974Z,7.97
2023-03-10T05:24:44.533Z,8.52
2023-03-10T05:27:16.491Z,10.23
2023-03-10T05:29:48.191Z,6.50
2023-03-10T05:32:26.307Z,7.72
2023-03-10T05:34:58.113Z,11.02
2023-03-10T05:40:01.034Z,7.38
2023-03-10T05:42:33.174Z,6.63
2023-03-10T05:45:06.515Z,7.00
2023-03-10T05:47:38.296Z,7.78
2023-03-10T05:50:11.205Z,6.70
2023-03-10T05:52:44.818Z,8.48
2023-03-10T05:55:20.311Z,7.05
2023-03-10T05:57:52.910Z,8.52
2023-03-10T06:00:24.486Z,7.43
2023-03-10T06:03:06.130Z,6.47
2023-03-10T06:05:37.725Z,10.27
2023-03-10T06:08:09.897Z,7.32
2023-03-10T06:10:41.500Z,7.00
2023-03-10T06:13:12.830Z,6.93
2023-03-10T06:15:44.487Z,8.00
2023-03-10T06:18:15.483Z,8.20
2023-03-10T06:20:47.307Z,7.70
2023-03-10T06:23:20.302Z,9.23
2023-03-10T06:26:00.177Z,8.07
2023-03-10T06:28:34.434Z,9.93
2023-03-10T06:31:13.769Z,7.90
2023-03-10T06:33:45.858Z,8.15
2023-03-10T06:36:17.909Z,8.27
2023-03-10T06:38:49.555Z,7.15
2023-03-10T06:41:20.970Z,9.45
2023-03-10T06:43:52.263Z,9.65
2023-03-10T06:46:23.836Z,9.27
2023-03-10T06:48:55.306Z,7.55
2023-03-10T06:51:26.696Z,10.13
2023-03-10T06:53:59.093Z,8.98
2023-03-10T06:56:30.459Z,9.30
2023-03-10T06:59:02.326Z,8.07
2023-03-10T07:01:36.289Z,11.27
2023-03-10T07:04:07.984Z,10.98
2023-03-10T07:06:39.468Z,9.07
2023-03-10T07:09:11.103Z,8.32
2023-03-10T07:14:18.576Z,9.05
2023-03-10T07:16:51.255Z,7.32
2023-03-10T07:19:23.785Z,8.45
2023-03-10T07:22:02.395Z,8.05
2023-03-10T07:24:38.588Z,13.30
2023-03-10T07:27:13.245Z,10.02
2023-03-10T07:29:46.709Z,8.35
2023-03-10T07:32:19.165Z,12.35
2023-03-10T07:34:53.475Z,10.93
2023-03-10T07:37:25.034Z,10.23
2023-03-10T07:39:58.915Z,8.70
2023-03-10T07:42:30.166Z,8.65
2023-03-10T07:45:02.626Z,10.43
2023-03-10T07:47:34.024Z,12.52
2023-03-10T07:50:05.389Z,10.38
2023-03-10T07:52:36.428Z,12.57
2023-03-10T07:55:08.397Z,10.40
2023-03-10T07:57:39.787Z,15.88
2023-03-10T08:00:12.231Z,14.60
2023-03-10T08:02:44.159Z,12.10
2023-03-10T08:05:16.366Z,11.65
2023-03-10T08:07:47.609Z,12.95
2023-03-10T08:10:20.367Z,12.50
2023-03-10T08:12:51.840Z,11.73
2023-03-10T08:17:54.055Z,15.43
2023-03-10T08:20:25.472Z,13.57
2023-03-10T08:22:57.085Z,14.07
2023-03-10T08:25:28.326Z,15.70
2023-03-10T08:27:59.645Z,15.90
2023-03-10T08:30:30.769Z,12.65
2023-03-10T08:33:02.220Z,12.70
2023-03-10T08:35:34.331Z,14.00
2023-03-10T08:38:07.166Z,14.43
2023-03-10T08:40:38.609Z,20.73
2023-03-10T08:43:09.989Z,16.17
2023-03-10T08:45:41.515Z,12.57
2023-03-10T08:48:12.535Z,18.02
2023-03-10T08:50:43.892Z,16.73
2023-03-10T08:55:48.956Z,14.57
2023-03-10T08:58:20.173Z,20.70
2023-03-10T09:00:51.920Z,15.98
2023-03-10T09:05:54.136Z,17.13
2023-03-10T09:08:27.558Z,17.13
2023-03-10T09:10:59.241Z,18.17
2023-03-10T09:13:30.515Z,16.52
2023-03-10T09:16:02.274Z,13.07
2023-03-10T09:18:33.732Z,17.15
2023-03-10T09:21:04.898Z,14.23
2023-03-10T09:23:41.439Z,13.55
2023-03-10T09:26:13.563Z,13.85
2023-03-10T09:28:47.585Z,14.80
2023-03-10T09:31:25.704Z,14.20
2023-03-10T09:33:59.628Z,14.57
2023-03-10T09:36:32.252Z,12.68
2023-03-10T09:39:04.462Z,14.73
2023-03-10T09:41:47.638Z,12.10
2023-03-10T09:44:46.159Z,18.95
2023-03-10T09:47:44.852Z,17.75
2023-03-10T09:50:44.857Z,15.23
2023-03-10T09:53:51.853Z,16.08
2023-03-10T09:56:30.012Z,17.30
2023-03-10T09:59:27.724Z,15.38
2023-03-10T10:02:00.889Z,13.18
2023-03-10T10:04:41.392Z,12.57
2023-03-10T10:07:22.426Z,14.98
2023-03-10T10:09:54.798Z,17.30
2023-03-10T10:12:28.787Z,15.43
2023-03-10T10:15:16.055Z,13.15
2023-03-10T10:17:55.138Z,14.30
2023-03-10T10:20:40.681Z,18.13
2023-03-10T10:23:23.944Z,11.20
2023-03-10T10:25:56.229Z,13.18
2023-03-10T10:28:49.229Z,20.00
2023-03-10T10:31:24.773Z,15.77
2023-03-10T10:33:57.337Z,17.67
2023-03-10T10:36:34.641Z,14.13
2023-03-10T10:39:21.064Z,12.40
2023-03-10T10:41:52.697Z,15.13
2023-03-10T10:44:23.912Z,17.00
2023-03-10T10:46:57.973Z,16.02
2023-03-10T10:49:33.169Z,12.88
2023-03-10T10:52:06.938Z,16.98
2023-03-10T10:54:41.461Z,17.38
2023-03-10T10:57:23.557Z,18.40
2023-03-10T10:59:55.216Z,16.63
2023-03-10T11:02:37.378Z,15.80
2023-03-10T11:05:16.526Z,15.60
2023-03-10T11:07:47.768Z,12.48
2023-03-10T11:10:39.785Z,11.75
2023-03-10T11:13:34.183Z,16.25
2023-03-10T11:16:42.931Z,15.50
2023-03-10T11:19:33.574Z,16.17
2023-03-10T11:22:36.154Z,18.15
2023-03-10T11:25:34.738Z,17.25
2023-03-10T11:28:27.967Z,18.60
2023-03-10T11:31:14.033Z,15.45
2023-03-10T11:34:13.045Z,15.30
2023-03-10T11:37:07.316Z,15.07
2023-03-10T11:39:57.458Z,13.05
2023-03-10T11:42:43.153Z,15.05
2023-03-10T11:45:39.404Z,16.77
2023-03-10T11:48:45.544Z,15.45
2023-03-10T11:51:28.002Z,17.35
2023-03-10T11:54:05.721Z,15.70
2023-03-10T11:56:40.404Z,16.88
2023-03-10T11:59:19.495Z,15.50
2023-03-10T12:02:08.069Z,16.92
2023-03-10T12:04:51.016Z,14.27
2023-03-10T12:07:32.413Z,20.20
2023-03-10T12:10:15.784Z,19.63
2023-03-10T12:12:49.001Z,15.52
2023-03-10T12:15:38.488Z,16.77
2023-03-10T12:18:10.667Z,16.00
2023-03-10T12:20:42.260Z,16.83
2023-03-10T12:23:13.462Z,15.32
2023-03-10T12:25:45.526Z,17.65
2023-03-10T12:28:20.016Z,18.10
2023-03-10T12:30:52.605Z,14.20
2023-03-10T12:33:39.279Z,14.80
2023-03-10T12:36:22.835Z,16.60
2023-03-10T12:38:55.438Z,13.20
2023-03-10T12:41:30.052Z,14.40
2023-03-10T12:44:04.158Z,14.77
2023-03-10T12:47:01.624Z,16.75
2023-03-10T12:50:13.160Z,19.52
2023-03-10T12:52:49.726Z,14.13
2023-03-10T12:55:28.188Z,13.50
2023-03-10T12:58:14.832Z,16.92
2023-03-10T13:01:00.172Z,13.68
2023-03-10T13:03:54.402Z,14.32
2023-03-10T13:06:42.820Z,13.88
2023-03-10T13:09:39.949Z,16.85
2023-03-10T13:12:33.882Z,12.48
2023-03-10T13:15:09.643Z,14.27
2023-03-10T13:17:40.992Z,14.00
2023-03-10T13:20:19.047Z,15.05
2023-03-10T13:23:01.165Z,15.20
2023-03-10T13:28:13.503Z,14.15
2023-03-10T13:30:44.828Z,20.10
2023-03-10T13:33:29.237Z,13.23
2023-03-10T13:36:01.194Z,14.38
2023-03-10T13:41:04.760Z,16.20
2023-03-10T13:43:43.139Z,14.82
2023-03-10T13:46:24.877Z,17.33
2023-03-10T13:48:57.888Z,14.07
2023-03-10T13:51:34.152Z,17.63
2023-03-10T13:54:24.243Z,16.33
2023-03-10T13:57:13.999Z,14.82
2023-03-10T13:59:45.392Z,14.07
2023-03-10T14:02:39.756Z,15.73
2023-03-10T14:05:40.970Z,14.60
2023-03-10T14:08:32.558Z,13.95
2023-03-10T14:11:26.415Z,12.75
2023-03-10T14:13:57.867Z,18.25
2023-03-10T14:16:48.035Z,13.25
2023-03-10T14:19:43.741Z,16.42
2023-03-10T14:22:24.277Z,16.30
2023-03-10T14:24:55.748Z,18.55
2023-03-10T14:27:27.973Z,17.98
2023-03-10T14:30:02.747Z,17.30
2023-03-10T14:32:33.985Z,16.92
2023-03-10T14:35:08.119Z,17.42
2023-03-10T14:37:39.602Z,17.85
2023-03-10T14:40:12.404Z,13.23
2023-03-10T14:42:44.411Z,19.20
2023-03-10T14:45:48.981Z,14.40
2023-03-10T14:48:22.926Z,14.32
2023-03-10T14:50:56.720Z,16.88
2023-03-10T14:53:29.641Z,14.60
2023-03-10T14:56:03.823Z,13.27
2023-03-10T14:58:39.310Z,16.52
2023-03-10T15:01:10.633Z,13.98
2023-03-10T15:03:42.954Z,16.38
2023-03-10T15:06:19.798Z,12.98
2023-03-10T15:08:52.008Z,15.77
2023-03-10T15:11:36.139Z,13.95
2023-03-10T15:14:20.824Z,15.73
2023-03-10T15:16:52.090Z,14.00
2023-03-10T15:19:27.236Z,15.93
2023-03-10T15:22:07.274Z,16.52
2023-03-10T15:24:38.587Z,13.73
2023-03-10T15:27:12.348Z,12.07
2023-03-10T15:29:43.839Z,20.20
2023-03-10T15:32:15.548Z,16.60
2023-03-10T15:34:46.966Z,11.50
2023-03-10T15:37:18.189Z,14.20
2023-03-10T15:39:49.733Z,17.65
2023-03-10T15:42:21.130Z,18.73
2023-03-10T15:44:53.425Z,19.52
2023-03-10T15:47:25.366Z,17.65
2023-03-10T15:52:27.818Z,13.50
2023-03-10T15:54:59.832Z,14.27
2023-03-10T15:57:31.842Z,15.77
2023-03-10T16:00:02.888Z,15.10
2023-03-10T16:02:35.725Z,16.73
2023-03-10T16:05:08.290Z,15.48
2023-03-10T16:07:40.169Z,15.65
2023-03-10T16:10:16.651Z,18.88
2023-03-10T16:12:48.611Z,16.77
2023-03-10T16:15:20.249Z,15.80
2023-03-10T16:17:51.525Z,12.98
2023-03-10T16:20:22.934Z,17.27
2023-03-10T16:22:54.321Z,18.80
2023-03-10T16:25:25.680Z,15.82
2023-03-10T16:27:57.384Z,21.70
2023-03-10T16:30:28.732Z,16.02
2023-03-10T16:33:02.393Z,18.23
2023-03-10T16:35:33.856Z,16.45
2023-03-10T16:38:04.943Z,17.15
2023-03-10T16:40:36.181Z,13.23
2023-03-10T16:43:07.342Z,15.75
2023-03-10T16:45:38.798Z,19.25
2023-03-10T16:48:10.893Z,15.27
2023-03-10T16:50:42.077Z,14.65
2023-03-10T16:53:13.525Z,16.92
2023-03-10T16:55:44.789Z,16.55
2023-03-10T16:58:16.449Z,22.17
2023-03-10T17:00:47.726Z,14.40
2023-03-10T17:03:18.787Z,19.73
2023-03-10T17:05:53.784Z,15.82
2023-03-10T17:08:25.204Z,17.08
2023-03-10T17:13:27.433Z,17.10
2023-03-10T17:15:58.918Z,16.00
2023-03-10T17:18:29.947Z,15.40
2023-03-10T17:21:01.242Z,21.05
2023-03-10T17:23:32.432Z,17.65
2023-03-10T17:26:03.667Z,17.40
2023-03-10T17:31:15.953Z,17.75
2023-03-10T17:33:47.404Z,15.43
2023-03-10T17:36:19.184Z,17.38
2023-03-10T17:38:52.062Z,21.42
2023-03-10T17:41:23.146Z,20.23
2023-03-10T17:43:56.284Z,19.80
2023-03-10T17:46:31.961Z,21.67
2023-03-10T17:49:03.891Z,19.55
2023-03-10T17:51:35.192Z,18.50
2023-03-10T17:54:06.729Z,16.95
2023-03-10T17:56:38.018Z,12.73
2023-03-10T17:59:09.286Z,16.58
2023-03-10T18:01:40.828Z,19.75
2023-03-10T18:04:12.862Z,22.17
2023-03-10T18:06:44.247Z,15.50
2023-03-10T18:09:17.092Z,22.17
2023-03-10T18:11:48.869Z,12.63
2023-03-10T18:14:20.078Z,15.48
2023-03-10T18:16:51.566Z,15.35
2023-03-10T18:19:23.480Z,18.30
2023-03-10T18:21:54.960Z,16.85
2023-03-10T18:24:26.716Z,16.80
2023-03-10T18:26:58.468Z,18.10
2023-03-10T18:32:00.650Z,16.02
2023-03-10T18:34:32.125Z,19.25
2023-03-10T18:37:03.780Z,21.35
2023-03-10T18:39:35.339Z,19.25
2023-03-10T18:44:37.573Z,19.00
2023-03-10T18:47:08.858Z,19.02
2023-03-10T18:49:40.834Z,17.40
2023-03-10T18:52:17.380Z,14.65
2023-03-10T18:54:50.208Z,16.73
2023-03-10T18:57:21.933Z,19.33
2023-03-10T18:59:53.352Z,20.33
2023-03-10T19:02:24.542Z,20.08
2023-03-10T19:04:56.231Z,22.27
2023-03-10T19:07:27.664Z,19.13
2023-03-10T19:09:58.805Z,17.80
2023-03-10T19:12:30.296Z,14.07
2023-03-10T19:17:35.055Z,18.48
2023-03-10T19:20:12.757Z,17.65
2023-03-10T19:22:44.724Z,21.05
2023-03-10T19:27:46.759Z,14.68
2023-03-10T19:30:21.533Z,20.45
2023-03-10T19:32:52.929Z,17.77
2023-03-10T19:35:24.004Z,19.38
2023-03-10T19:37:55.281Z,17.75
2023-03-10T19:40:26.633Z,20.00
2023-03-10T19:42:58.293Z,17.10
2023-03-10T19:45:30.407Z,19.13
2023-03-10T19:48:01.487Z,15.27
2023-03-10T19:50:33.854Z,17.80
2023-03-10T19:53:06.684Z,17.92
2023-03-10T19:55:39.548Z,14.38
2023-03-10T19:58:10.732Z,14.88
2023-03-10T20:00:41.720Z,15.63
2023-03-10T20:03:13.411Z,15.38
2023-03-10T20:05:45.031Z,15.65
2023-03-10T20:10:47.586Z,16.63
2023-03-10T20:13:18.973Z,17.13
2023-03-10T20:18:22.684Z,18.45
2023-03-10T20:20:54.215Z,14.25
2023-03-10T20:23:25.782Z,14.20
2023-03-10T20:26:04.988Z,13.35
2023-03-10T20:28:37.453Z,15.65
2023-03-10T20:31:09.706Z,14.23
2023-03-10T20:33:41.266Z,17.27
2023-03-10T20:38:48.437Z,15.25
2023-03-10T20:41:20.705Z,15.25
2023-03-10T20:43:54.880Z,15.93
2023-03-10T20:46:27.394Z,15.18
2023-03-10T20:48:59.098Z,15.68
2023-03-10T20:51:30.953Z,16.00
2023-03-10T20:56:34.732Z,13.30
2023-03-10T20:59:06.057Z,13.55
2023-03-10T21:01:41.249Z,14.27
2023-03-10T21:04:12.706Z,12.60
2023-03-10T21:09:15.425Z,15.70
2023-03-10T21:11:46.623Z,12.00
2023-03-10T21:14:18.491Z,11.90
2023-03-10T21:16:50.020Z,11.13
2023-03-10T21:21:51.780Z,11.13
2023-03-10T21:24:23.777Z,13.88
2023-03-10T21:26:55.055Z,13.52
2023-03-10T21:29:26.385Z,9.73
2023-03-10T21:31:57.822Z,13.70
2023-03-10T21:34:29.728Z,11.23
2023-03-10T21:37:01.688Z,11.18
2023-03-10T21:39:33.367Z,10.30
2023-03-10T21:42:04.853Z,11.93
2023-03-10T21:44:35.783Z,14.30
2023-03-10T21:47:06.892Z,13.35
2023-03-10T21:52:10.490Z,7.82
2023-03-10T21:54:42.287Z,11.38
2023-03-10T21:57:13.817Z,11.68
2023-03-10T22:02:27.270Z,10.98
2023-03-10T22:04:59.247Z,12.82
2023-03-10T22:07:30.851Z,8.40
2023-03-10T22:10:02.992Z,8.48
2023-03-10T22:12:34.926Z,10.95
2023-03-10T22:15:08.180Z,8.02
2023-03-10T22:17:39.902Z,8.88
2023-03-10T22:20:22.066Z,10.18
2023-03-10T22:22:53.388Z,8.10
2023-03-10T22:25:25.348Z,7.80
2023-03-10T22:27:57.976Z,8.48
2023-03-10T22:30:30.789Z,10.13
2023-03-10T22:33:04.465Z,9.70
2023-03-10T22:35:37.317Z,8.23
2023-03-10T22:38:08.996Z,7.88
2023-03-10T22:40:40.030Z,6.57
2023-03-10T22:43:11.325Z,10.38
2023-03-10T22:48:14.636Z,8.40
2023-03-10T22:50:48.146Z,7.57
2023-03-10T22:53:22.448Z,7.45
2023-03-10T22:55:53.881Z,7.30
2023-03-10T23:00:56.006Z,10.15
2023-03-10T23:06:00.027Z,11.77
2023-03-10T23:08:31.470Z,8.52
2023-03-10T23:11:02.751Z,8.13
2023-03-10T23:13:34.156Z,10.32
2023-03-10T23:18:36.865Z,10.38
2023-03-10T23:21:08.603Z,12.15
2023-03-10T23:23:40.717Z,8.15
2023-03-10T23:26:13.056Z,10.70
2023-03-10T23:28:44.543Z,9.13
2023-03-10T23:31:18.393Z,8.20
2023-03-10T23:33:50.961Z,8.73
2023-03-10T23:36:22.330Z,10.00
2023-03-10T23:38:53.764Z,10.77
2023-03-10T23:41:26.522Z,12.23
2023-03-10T23:43:57.707Z,10.48
2023-03-10T23:46:29.374Z,9.60
2023-03-10T23:49:00.853Z,10.10
2023-03-10T23:51:32.336Z,6.72
2023-03-10T23:54:04.192Z,9.75
2023-03-10T23:56:35.592Z,12.15
